sensor_id;sensor_type;location;lat;lon;timestamp;P1;durP1;ratioP1;P2;durP2;ratioP2
10260;SDS011;5175;42.606;23.388;2024-03-07T00:01:39;19.83;;;17.37;;
10260;SDS011;5175;42.606;23.388;2024-03-07T00:04:05;18.23;;;16.43;;
10260;SDS011;5175;42.606;23.388;2024-03-07T00:06:32;19.47;;;17.37;;
10260;SDS011;5175;42.606;23.388;2024-03-07T00:08:59;18.97;;;16.97;;
10260;SDS011;5175;42.606;23.388;2024-03-07T00:11:26;18.27;;;16.27;;
10260;SDS011;5175;42.606;23.388;2024-03-07T00:13:53;18.97;;;17.00;;
10260;SDS011;5175;42.606;23.388;2024-03-07T00:16:21;18.23;;;16.33;;
10260;SDS011;5175;42.606;23.388;2024-03-07T00:18:48;17.83;;;15.93;;
10260;SDS011;5175;42.606;23.388;2024-03-07T00:21:15;18.30;;;16.37;;
10260;SDS011;5175;42.606;23.388;2024-03-07T00:23:41;19.20;;;17.27;;
10260;SDS011;5175;42.606;23.388;2024-03-07T00:26:08;19.73;;;17.73;;
10260;SDS011;5175;42.606;23.388;2024-03-07T00:28:35;19.17;;;17.27;;
10260;SDS011;5175;42.606;23.388;2024-03-07T00:31:04;19.87;;;17.73;;
10260;SDS011;5175;42.606;23.388;2024-03-07T00:33:34;18.10;;;16.20;;
10260;SDS011;5175;42.606;23.388;2024-03-07T00:36:02;19.53;;;17.53;;
10260;SDS011;5175;42.606;23.388;2024-03-07T00:38:29;20.13;;;17.30;;
10260;SDS011;5175;42.606;23.388;2024-03-07T00:40:55;20.90;;;18.63;;
10260;SDS011;5175;42.606;23.388;2024-03-07T00:43:22;22.17;;;19.87;;
10260;SDS011;5175;42.606;23.388;2024-03-07T00:45:50;21.23;;;18.93;;
10260;SDS011;5175;42.606;23.388;2024-03-07T00:48:17;20.53;;;18.33;;
10260;SDS011;5175;42.606;23.388;2024-03-07T00:50:45;22.17;;;19.20;;
10260;SDS011;5175;42.606;23.388;2024-03-07T00:53:11;21.80;;;19.40;;
10260;SDS011;5175;42.606;23.388;2024-03-07T00:55:38;21.83;;;19.53;;
10260;SDS011;5175;42.606;23.388;2024-03-07T00:58:05;22.03;;;19.20;;
10260;SDS011;5175;42.606;23.388;2024-03-07T01:00:31;21.83;;;19.30;;
10260;SDS011;5175;42.606;23.388;2024-03-07T01:02:58;20.93;;;18.67;;
10260;SDS011;5175;42.606;23.388;2024-03-07T01:05:25;20.90;;;18.77;;
10260;SDS011;5175;42.606;23.388;2024-03-07T01:07:53;21.17;;;18.67;;
10260;SDS011;5175;42.606;23.388;2024-03-07T01:10:20;19.83;;;17.80;;
10260;SDS011;5175;42.606;23.388;2024-03-07T01:12:47;20.43;;;18.20;;
10260;SDS011;5175;42.606;23.388;2024-03-07T01:15:16;19.67;;;17.57;;
10260;SDS011;5175;42.606;23.388;2024-03-07T01:17:43;20.00;;;17.90;;
10260;SDS011;5175;42.606;23.388;2024-03-07T01:20:11;49.43;;;19.03;;
10260;SDS011;5175;42.606;23.388;2024-03-07T01:22:37;18.80;;;16.33;;
10260;SDS011;5175;42.606;23.388;2024-03-07T01:25:06;18.13;;;15.93;;
10260;SDS011;5175;42.606;23.388;2024-03-07T01:27:33;17.10;;;15.30;;
10260;SDS011;5175;42.606;23.388;2024-03-07T01:30:00;17.20;;;15.40;;
10260;SDS011;5175;42.606;23.388;2024-03-07T01:32:28;16.90;;;14.87;;
10260;SDS011;5175;42.606;23.388;2024-03-07T01:34:55;15.57;;;13.97;;
10260;SDS011;5175;42.606;23.388;2024-03-07T01:37:22;17.27;;;15.37;;
10260;SDS011;5175;42.606;23.388;2024-03-07T01:39:48;16.90;;;15.10;;
10260;SDS011;5175;42.606;23.388;2024-03-07T01:42:17;15.37;;;13.77;;
10260;SDS011;5175;42.606;23.388;2024-03-07T01:44:43;16.80;;;15.07;;
10260;SDS011;5175;42.606;23.388;2024-03-07T01:47:10;15.73;;;14.10;;
10260;SDS011;5175;42.606;23.388;2024-03-07T01:49:37;15.70;;;14.00;;
10260;SDS011;5175;42.606;23.388;2024-03-07T01:52:04;13.53;;;12.20;;
10260;SDS011;5175;42.606;23.388;2024-03-07T01:54:31;13.13;;;11.83;;
10260;SDS011;5175;42.606;23.388;2024-03-07T01:56:59;11.13;;;9.33;;
10260;SDS011;5175;42.606;23.388;2024-03-07T01:59:29;8.03;;;6.87;;
10260;SDS011;5175;42.606;23.388;2024-03-07T02:01:57;6.87;;;6.13;;
10260;SDS011;5175;42.606;23.388;2024-03-07T02:04:27;3.30;;;3.00;;
10260;SDS011;5175;42.606;23.388;2024-03-07T02:06:54;2.50;;;2.27;;
10260;SDS011;5175;42.606;23.388;2024-03-07T02:09:21;2.10;;;1.90;;
10260;SDS011;5175;42.606;23.388;2024-03-07T02:11:48;2.20;;;2.00;;
10260;SDS011;5175;42.606;23.388;2024-03-07T02:14:15;3.20;;;2.30;;
10260;SDS011;5175;42.606;23.388;2024-03-07T02:16:43;2.17;;;1.97;;
10260;SDS011;5175;42.606;23.388;2024-03-07T02:19:10;1.70;;;1.50;;
10260;SDS011;5175;42.606;23.388;2024-03-07T02:21:41;2.00;;;1.80;;
10260;SDS011;5175;42.606;23.388;2024-03-07T02:24:08;2.63;;;1.40;;
10260;SDS011;5175;42.606;23.388;2024-03-07T02:26:35;1.50;;;1.40;;
10260;SDS011;5175;42.606;23.388;2024-03-07T02:29:04;1.73;;;1.50;;
10260;SDS011;5175;42.606;23.388;2024-03-07T02:31:31;1.47;;;1.30;;
10260;SDS011;5175;42.606;23.388;2024-03-07T02:34:02;2.70;;;1.67;;
10260;SDS011;5175;42.606;23.388;2024-03-07T02:36:29;2.13;;;1.30;;
10260;SDS011;5175;42.606;23.388;2024-03-07T02:38:57;1.60;;;1.40;;
10260;SDS011;5175;42.606;23.388;2024-03-07T02:41:24;1.57;;;1.20;;
10260;SDS011;5175;42.606;23.388;2024-03-07T02:43:51;1.40;;;1.30;;
10260;SDS011;5175;42.606;23.388;2024-03-07T02:46:18;1.10;;;1.00;;
10260;SDS011;5175;42.606;23.388;2024-03-07T02:48:45;1.50;;;1.40;;
10260;SDS011;5175;42.606;23.388;2024-03-07T02:51:12;1.83;;;1.20;;
10260;SDS011;5175;42.606;23.388;2024-03-07T02:53:39;1.47;;;1.30;;
10260;SDS011;5175;42.606;23.388;2024-03-07T02:56:07;4.57;;;4.07;;
10260;SDS011;5175;42.606;23.388;2024-03-07T02:58:34;1.40;;;1.30;;
10260;SDS011;5175;42.606;23.388;2024-03-07T03:01:01;1.57;;;1.27;;
10260;SDS011;5175;42.606;23.388;2024-03-07T03:03:29;1.40;;;1.23;;
10260;SDS011;5175;42.606;23.388;2024-03-07T03:05:57;2.33;;;1.20;;
10260;SDS011;5175;42.606;23.388;2024-03-07T03:08:24;1.23;;;1.10;;
10260;SDS011;5175;42.606;23.388;2024-03-07T03:10:54;1.17;;;1.07;;
10260;SDS011;5175;42.606;23.388;2024-03-07T03:13:23;1.53;;;1.10;;
10260;SDS011;5175;42.606;23.388;2024-03-07T03:15:52;1.33;;;1.23;;
10260;SDS011;5175;42.606;23.388;2024-03-07T03:18:19;1.23;;;1.13;;
10260;SDS011;5175;42.606;23.388;2024-03-07T03:20:46;1.27;;;1.17;;
10260;SDS011;5175;42.606;23.388;2024-03-07T03:23:13;1.67;;;1.20;;
10260;SDS011;5175;42.606;23.388;2024-03-07T03:25:40;1.50;;;0.83;;
10260;SDS011;5175;42.606;23.388;2024-03-07T03:28:08;1.17;;;1.07;;
10260;SDS011;5175;42.606;23.388;2024-03-07T03:30:37;1.40;;;1.30;;
10260;SDS011;5175;42.606;23.388;2024-03-07T03:33:04;1.47;;;1.23;;
10260;SDS011;5175;42.606;23.388;2024-03-07T03:35:31;1.40;;;1.30;;
10260;SDS011;5175;42.606;23.388;2024-03-07T03:37:58;1.37;;;1.10;;
10260;SDS011;5175;42.606;23.388;2024-03-07T03:40:25;1.40;;;1.20;;
10260;SDS011;5175;42.606;23.388;2024-03-07T03:42:52;1.30;;;1.20;;
10260;SDS011;5175;42.606;23.388;2024-03-07T03:45:19;1.13;;;1.07;;
10260;SDS011;5175;42.606;23.388;2024-03-07T03:47:47;1.30;;;1.20;;
10260;SDS011;5175;42.606;23.388;2024-03-07T03:50:14;1.13;;;1.03;;
10260;SDS011;5175;42.606;23.388;2024-03-07T03:52:41;1.17;;;1.07;;
10260;SDS011;5175;42.606;23.388;2024-03-07T03:55:08;1.20;;;1.10;;
10260;SDS011;5175;42.606;23.388;2024-03-07T03:57:37;1.40;;;1.30;;
10260;SDS011;5175;42.606;23.388;2024-03-07T04:00:05;1.20;;;1.10;;
10260;SDS011;5175;42.606;23.388;2024-03-07T04:02:38;1.23;;;1.13;;
10260;SDS011;5175;42.606;23.388;2024-03-07T04:05:07;2.90;;;1.50;;
10260;SDS011;5175;42.606;23.388;2024-03-07T04:07:35;3.57;;;3.23;;
10260;SDS011;5175;42.606;23.388;2024-03-07T04:10:02;1.50;;;1.40;;
10260;SDS011;5175;42.606;23.388;2024-03-07T04:12:32;1.30;;;1.20;;
10260;SDS011;5175;42.606;23.388;2024-03-07T04:14:58;1.20;;;1.10;;
10260;SDS011;5175;42.606;23.388;2024-03-07T04:17:26;1.33;;;1.23;;
10260;SDS011;5175;42.606;23.388;2024-03-07T04:19:52;1.40;;;1.30;;
10260;SDS011;5175;42.606;23.388;2024-03-07T04:22:20;1.30;;;1.20;;
10260;SDS011;5175;42.606;23.388;2024-03-07T04:24:48;1.50;;;1.40;;
10260;SDS011;5175;42.606;23.388;2024-03-07T04:27:19;1.73;;;1.60;;
10260;SDS011;5175;42.606;23.388;2024-03-07T04:29:46;2.33;;;1.70;;
10260;SDS011;5175;42.606;23.388;2024-03-07T04:32:14;1.77;;;1.63;;
10260;SDS011;5175;42.606;23.388;2024-03-07T04:34:42;1.80;;;1.70;;
10260;SDS011;5175;42.606;23.388;2024-03-07T04:37:09;1.77;;;1.67;;
10260;SDS011;5175;42.606;23.388;2024-03-07T04:39:37;2.00;;;1.80;;
10260;SDS011;5175;42.606;23.388;2024-03-07T04:42:04;1.83;;;1.73;;
10260;SDS011;5175;42.606;23.388;2024-03-07T04:44:32;1.70;;;1.60;;
10260;SDS011;5175;42.606;23.388;2024-03-07T04:47:01;2.03;;;1.83;;
10260;SDS011;5175;42.606;23.388;2024-03-07T04:49:29;1.83;;;1.70;;
10260;SDS011;5175;42.606;23.388;2024-03-07T04:51:57;2.00;;;1.80;;
10260;SDS011;5175;42.606;23.388;2024-03-07T04:54:28;1.80;;;1.70;;
10260;SDS011;5175;42.606;23.388;2024-03-07T04:57:05;1.90;;;1.80;;
10260;SDS011;5175;42.606;23.388;2024-03-07T04:59:32;1.80;;;1.70;;
10260;SDS011;5175;42.606;23.388;2024-03-07T05:01:59;1.80;;;1.70;;
10260;SDS011;5175;42.606;23.388;2024-03-07T05:04:25;2.00;;;1.80;;
10260;SDS011;5175;42.606;23.388;2024-03-07T05:06:54;2.10;;;1.90;;
10260;SDS011;5175;42.606;23.388;2024-03-07T05:09:22;1.90;;;1.77;;
10260;SDS011;5175;42.606;23.388;2024-03-07T05:11:52;1.60;;;1.50;;
10260;SDS011;5175;42.606;23.388;2024-03-07T05:14:18;1.70;;;1.60;;
10260;SDS011;5175;42.606;23.388;2024-03-07T05:16:47;1.83;;;1.70;;
10260;SDS011;5175;42.606;23.388;2024-03-07T05:19:27;1.33;;;1.23;;
10260;SDS011;5175;42.606;23.388;2024-03-07T05:21:55;1.63;;;1.53;;
10260;SDS011;5175;42.606;23.388;2024-03-07T05:24:21;1.90;;;1.80;;
10260;SDS011;5175;42.606;23.388;2024-03-07T05:26:48;1.70;;;1.60;;
10260;SDS011;5175;42.606;23.388;2024-03-07T05:29:17;1.93;;;1.80;;
10260;SDS011;5175;42.606;23.388;2024-03-07T05:31:44;1.80;;;1.70;;
10260;SDS011;5175;42.606;23.388;2024-03-07T05:34:12;1.80;;;1.70;;
10260;SDS011;5175;42.606;23.388;2024-03-07T05:36:40;2.03;;;1.93;;
10260;SDS011;5175;42.606;23.388;2024-03-07T05:39:10;1.80;;;1.70;;
10260;SDS011;5175;42.606;23.388;2024-03-07T05:41:37;1.70;;;1.60;;
10260;SDS011;5175;42.606;23.388;2024-03-07T05:44:05;1.70;;;1.60;;
10260;SDS011;5175;42.606;23.388;2024-03-07T05:46:35;1.40;;;1.30;;
10260;SDS011;5175;42.606;23.388;2024-03-07T05:49:06;1.60;;;1.50;;
10260;SDS011;5175;42.606;23.388;2024-03-07T05:51:33;1.63;;;1.53;;
10260;SDS011;5175;42.606;23.388;2024-03-07T05:53:59;1.37;;;1.27;;
10260;SDS011;5175;42.606;23.388;2024-03-07T05:56:26;4.63;;;2.67;;
10260;SDS011;5175;42.606;23.388;2024-03-07T05:58:52;1.90;;;1.80;;
10260;SDS011;5175;42.606;23.388;2024-03-07T06:01:19;1.27;;;1.17;;
10260;SDS011;5175;42.606;23.388;2024-03-07T06:03:47;1.87;;;1.47;;
10260;SDS011;5175;42.606;23.388;2024-03-07T06:06:14;1.60;;;1.50;;
10260;SDS011;5175;42.606;23.388;2024-03-07T06:08:40;4.23;;;1.40;;
10260;SDS011;5175;42.606;23.388;2024-03-07T06:11:08;1.70;;;1.60;;
10260;SDS011;5175;42.606;23.388;2024-03-07T06:13:35;1.60;;;1.50;;
10260;SDS011;5175;42.606;23.388;2024-03-07T06:16:02;16.67;;;11.63;;
10260;SDS011;5175;42.606;23.388;2024-03-07T06:18:32;2.40;;;2.20;;
10260;SDS011;5175;42.606;23.388;2024-03-07T06:21:01;1.80;;;1.70;;
10260;SDS011;5175;42.606;23.388;2024-03-07T06:23:29;2.13;;;1.93;;
10260;SDS011;5175;42.606;23.388;2024-03-07T06:25:57;2.83;;;2.10;;
10260;SDS011;5175;42.606;23.388;2024-03-07T06:28:25;1.93;;;1.77;;
10260;SDS011;5175;42.606;23.388;2024-03-07T06:30:53;2.20;;;2.00;;
10260;SDS011;5175;42.606;23.388;2024-03-07T06:33:21;2.60;;;1.87;;
10260;SDS011;5175;42.606;23.388;2024-03-07T06:35:48;1.93;;;1.73;;
10260;SDS011;5175;42.606;23.388;2024-03-07T06:38:18;2.27;;;1.80;;
10260;SDS011;5175;42.606;23.388;2024-03-07T06:40:44;1.93;;;1.70;;
10260;SDS011;5175;42.606;23.388;2024-03-07T06:43:11;1.80;;;1.70;;
10260;SDS011;5175;42.606;23.388;2024-03-07T06:45:39;1.90;;;1.70;;
10260;SDS011;5175;42.606;23.388;2024-03-07T06:48:07;1.97;;;1.70;;
10260;SDS011;5175;42.606;23.388;2024-03-07T06:50:34;2.57;;;1.77;;
10260;SDS011;5175;42.606;23.388;2024-03-07T06:53:01;1.90;;;1.70;;
10260;SDS011;5175;42.606;23.388;2024-03-07T06:55:29;2.00;;;1.80;;
10260;SDS011;5175;42.606;23.388;2024-03-07T06:57:58;1.70;;;1.60;;
10260;SDS011;5175;42.606;23.388;2024-03-07T07:00:26;1.83;;;1.70;;
10260;SDS011;5175;42.606;23.388;2024-03-07T07:02:53;2.13;;;1.77;;
10260;SDS011;5175;42.606;23.388;2024-03-07T07:05:20;1.97;;;1.77;;
10260;SDS011;5175;42.606;23.388;2024-03-07T07:07:48;2.00;;;1.80;;
10260;SDS011;5175;42.606;23.388;2024-03-07T07:10:16;2.20;;;2.00;;
10260;SDS011;5175;42.606;23.388;2024-03-07T07:12:45;2.23;;;2.03;;
10260;SDS011;5175;42.606;23.388;2024-03-07T07:15:13;2.37;;;2.17;;
10260;SDS011;5175;42.606;23.388;2024-03-07T07:17:41;2.60;;;2.40;;
10260;SDS011;5175;42.606;23.388;2024-03-07T07:20:10;2.53;;;2.33;;
10260;SDS011;5175;42.606;23.388;2024-03-07T07:22:40;2.60;;;2.40;;
10260;SDS011;5175;42.606;23.388;2024-03-07T07:25:07;3.13;;;2.53;;
10260;SDS011;5175;42.606;23.388;2024-03-07T07:27:39;9.67;;;3.63;;
10260;SDS011;5175;42.606;23.388;2024-03-07T07:30:10;2.43;;;2.10;;
10260;SDS011;5175;42.606;23.388;2024-03-07T07:32:40;2.57;;;2.33;;
10260;SDS011;5175;42.606;23.388;2024-03-07T07:35:08;2.60;;;2.10;;
10260;SDS011;5175;42.606;23.388;2024-03-07T07:37:37;2.40;;;2.20;;
10260;SDS011;5175;42.606;23.388;2024-03-07T07:40:04;1.93;;;1.80;;
10260;SDS011;5175;42.606;23.388;2024-03-07T07:42:33;1.80;;;1.67;;
10260;SDS011;5175;42.606;23.388;2024-03-07T07:45:04;2.60;;;1.70;;
10260;SDS011;5175;42.606;23.388;2024-03-07T07:47:33;2.10;;;1.90;;
10260;SDS011;5175;42.606;23.388;2024-03-07T07:50:02;1.93;;;1.37;;
10260;SDS011;5175;42.606;23.388;2024-03-07T07:52:32;22.23;;;3.73;;
10260;SDS011;5175;42.606;23.388;2024-03-07T07:54:59;21.83;;;3.20;;
10260;SDS011;5175;42.606;23.388;2024-03-07T07:57:26;1.93;;;1.43;;
10260;SDS011;5175;42.606;23.388;2024-03-07T07:59:54;1.80;;;1.43;;
10260;SDS011;5175;42.606;23.388;2024-03-07T08:02:20;2.50;;;2.00;;
10260;SDS011;5175;42.606;23.388;2024-03-07T08:04:48;2.53;;;2.17;;
10260;SDS011;5175;42.606;23.388;2024-03-07T08:07:15;2.73;;;2.40;;
10260;SDS011;5175;42.606;23.388;2024-03-07T08:09:42;3.17;;;2.50;;
10260;SDS011;5175;42.606;23.388;2024-03-07T08:12:09;3.80;;;2.13;;
10260;SDS011;5175;42.606;23.388;2024-03-07T08:14:37;2.60;;;1.50;;
10260;SDS011;5175;42.606;23.388;2024-03-07T08:17:04;1.50;;;1.40;;
10260;SDS011;5175;42.606;23.388;2024-03-07T08:19:31;66.77;;;8.73;;
10260;SDS011;5175;42.606;23.388;2024-03-07T08:21:59;78.33;;;8.90;;
10260;SDS011;5175;42.606;23.388;2024-03-07T08:24:27;61.03;;;7.67;;
10260;SDS011;5175;42.606;23.388;2024-03-07T08:26:53;5.93;;;2.47;;
10260;SDS011;5175;42.606;23.388;2024-03-07T08:29:21;4.17;;;2.43;;
10260;SDS011;5175;42.606;23.388;2024-03-07T08:31:49;1.70;;;1.60;;
10260;SDS011;5175;42.606;23.388;2024-03-07T08:34:16;7.93;;;1.83;;
10260;SDS011;5175;42.606;23.388;2024-03-07T08:36:42;1.37;;;1.17;;
10260;SDS011;5175;42.606;23.388;2024-03-07T08:39:11;2.00;;;1.80;;
10260;SDS011;5175;42.606;23.388;2024-03-07T08:41:39;1.40;;;1.30;;
10260;SDS011;5175;42.606;23.388;2024-03-07T08:44:08;1.50;;;1.40;;
10260;SDS011;5175;42.606;23.388;2024-03-07T08:46:35;1.30;;;1.20;;
10260;SDS011;5175;42.606;23.388;2024-03-07T08:49:02;1.47;;;1.20;;
10260;SDS011;5175;42.606;23.388;2024-03-07T08:51:30;1.30;;;1.20;;
10260;SDS011;5175;42.606;23.388;2024-03-07T08:53:57;1.30;;;1.20;;
10260;SDS011;5175;42.606;23.388;2024-03-07T08:56:25;1.50;;;1.40;;
10260;SDS011;5175;42.606;23.388;2024-03-07T08:58:52;1.50;;;1.40;;
10260;SDS011;5175;42.606;23.388;2024-03-07T09:01:19;1.40;;;1.30;;
10260;SDS011;5175;42.606;23.388;2024-03-07T09:03:46;1.70;;;1.37;;
10260;SDS011;5175;42.606;23.388;2024-03-07T09:06:13;1.23;;;1.13;;
10260;SDS011;5175;42.606;23.388;2024-03-07T09:08:41;1.40;;;1.30;;
10260;SDS011;5175;42.606;23.388;2024-03-07T09:11:08;4.77;;;1.70;;
10260;SDS011;5175;42.606;23.388;2024-03-07T09:13:37;1.60;;;1.50;;
10260;SDS011;5175;42.606;23.388;2024-03-07T09:16:05;2.33;;;1.60;;
10260;SDS011;5175;42.606;23.388;2024-03-07T09:18:32;3.37;;;2.40;;
10260;SDS011;5175;42.606;23.388;2024-03-07T09:20:59;2.17;;;1.40;;
10260;SDS011;5175;42.606;23.388;2024-03-07T09:23:26;1.83;;;1.63;;
10260;SDS011;5175;42.606;23.388;2024-03-07T09:25:52;4.90;;;2.57;;
10260;SDS011;5175;42.606;23.388;2024-03-07T09:28:19;1.70;;;1.60;;
10260;SDS011;5175;42.606;23.388;2024-03-07T09:30:47;2.23;;;1.70;;
10260;SDS011;5175;42.606;23.388;2024-03-07T09:33:14;10.73;;;2.77;;
10260;SDS011;5175;42.606;23.388;2024-03-07T09:35:44;8.93;;;2.63;;
10260;SDS011;5175;42.606;23.388;2024-03-07T09:38:11;8.10;;;3.17;;
10260;SDS011;5175;42.606;23.388;2024-03-07T09:40:38;2.70;;;2.50;;
10260;SDS011;5175;42.606;23.388;2024-03-07T09:43:06;5.40;;;2.70;;
10260;SDS011;5175;42.606;23.388;2024-03-07T09:45:36;5.93;;;3.17;;
10260;SDS011;5175;42.606;23.388;2024-03-07T09:48:06;7.57;;;3.57;;
10260;SDS011;5175;42.606;23.388;2024-03-07T09:50:34;2.80;;;2.60;;
10260;SDS011;5175;42.606;23.388;2024-03-07T09:53:03;5.40;;;3.30;;
10260;SDS011;5175;42.606;23.388;2024-03-07T09:55:30;5.50;;;3.77;;
10260;SDS011;5175;42.606;23.388;2024-03-07T09:57:58;5.50;;;4.30;;
10260;SDS011;5175;42.606;23.388;2024-03-07T10:00:28;4.90;;;3.80;;
10260;SDS011;5175;42.606;23.388;2024-03-07T10:02:57;10.03;;;4.80;;
10260;SDS011;5175;42.606;23.388;2024-03-07T10:05:27;5.63;;;3.20;;
10260;SDS011;5175;42.606;23.388;2024-03-07T10:07:54;4.37;;;3.20;;
10260;SDS011;5175;42.606;23.388;2024-03-07T10:10:21;3.10;;;2.80;;
10260;SDS011;5175;42.606;23.388;2024-03-07T10:12:48;111.20;;;12.53;;
10260;SDS011;5175;42.606;23.388;2024-03-07T10:15:15;26.70;;;6.53;;
10260;SDS011;5175;42.606;23.388;2024-03-07T10:17:42;95.53;;;11.90;;
10260;SDS011;5175;42.606;23.388;2024-03-07T10:20:12;13.83;;;4.30;;
10260;SDS011;5175;42.606;23.388;2024-03-07T10:22:41;17.33;;;5.50;;
10260;SDS011;5175;42.606;23.388;2024-03-07T10:25:08;10.93;;;7.70;;
10260;SDS011;5175;42.606;23.388;2024-03-07T10:27:36;3.47;;;3.17;;
10260;SDS011;5175;42.606;23.388;2024-03-07T10:30:06;21.87;;;7.03;;
10260;SDS011;5175;42.606;23.388;2024-03-07T10:32:34;18.13;;;4.33;;
10260;SDS011;5175;42.606;23.388;2024-03-07T10:35:01;12.13;;;4.27;;
10260;SDS011;5175;42.606;23.388;2024-03-07T10:37:33;4.13;;;3.53;;
10260;SDS011;5175;42.606;23.388;2024-03-07T10:40:02;5.73;;;3.07;;
10260;SDS011;5175;42.606;23.388;2024-03-07T10:42:40;6.67;;;3.43;;
10260;SDS011;5175;42.606;23.388;2024-03-07T10:45:11;3.43;;;3.13;;
10260;SDS011;5175;42.606;23.388;2024-03-07T10:47:43;4.67;;;3.13;;
10260;SDS011;5175;42.606;23.388;2024-03-07T10:50:17;3.00;;;2.70;;
10260;SDS011;5175;42.606;23.388;2024-03-07T10:52:49;10.90;;;4.33;;
10260;SDS011;5175;42.606;23.388;2024-03-07T10:55:26;6.63;;;3.47;;
10260;SDS011;5175;42.606;23.388;2024-03-07T10:58:02;5.57;;;3.30;;
10260;SDS011;5175;42.606;23.388;2024-03-07T11:00:34;4.40;;;3.07;;
10260;SDS011;5175;42.606;23.388;2024-03-07T11:03:04;7.80;;;3.80;;
10260;SDS011;5175;42.606;23.388;2024-03-07T11:05:33;3.50;;;3.20;;
10260;SDS011;5175;42.606;23.388;2024-03-07T11:08:00;4.10;;;3.50;;
10260;SDS011;5175;42.606;23.388;2024-03-07T11:10:35;39.13;;;6.57;;
10260;SDS011;5175;42.606;23.388;2024-03-07T11:13:02;20.67;;;4.20;;
10260;SDS011;5175;42.606;23.388;2024-03-07T11:15:30;16.57;;;5.03;;
10260;SDS011;5175;42.606;23.388;2024-03-07T11:17:59;8.33;;;3.60;;
10260;SDS011;5175;42.606;23.388;2024-03-07T11:20:27;12.03;;;4.10;;
10260;SDS011;5175;42.606;23.388;2024-03-07T11:23:00;23.77;;;5.20;;
10260;SDS011;5175;42.606;23.388;2024-03-07T11:25:28;12.20;;;3.70;;
10260;SDS011;5175;42.606;23.388;2024-03-07T11:27:57;5.70;;;4.00;;
10260;SDS011;5175;42.606;23.388;2024-03-07T11:30:26;4.83;;;4.00;;
10260;SDS011;5175;42.606;23.388;2024-03-07T11:32:54;11.77;;;4.47;;
10260;SDS011;5175;42.606;23.388;2024-03-07T11:35:31;27.17;;;6.67;;
10260;SDS011;5175;42.606;23.388;2024-03-07T11:38:00;7.27;;;5.43;;
10260;SDS011;5175;42.606;23.388;2024-03-07T11:40:44;11.50;;;5.50;;
10260;SDS011;5175;42.606;23.388;2024-03-07T11:43:15;6.00;;;4.97;;
10260;SDS011;5175;42.606;23.388;2024-03-07T11:45:42;5.57;;;4.80;;
10260;SDS011;5175;42.606;23.388;2024-03-07T11:48:17;9.53;;;5.67;;
10260;SDS011;5175;42.606;23.388;2024-03-07T11:50:45;7.10;;;4.80;;
10260;SDS011;5175;42.606;23.388;2024-03-07T11:53:14;14.57;;;5.67;;
10260;SDS011;5175;42.606;23.388;2024-03-07T11:55:41;9.43;;;4.90;;
10260;SDS011;5175;42.606;23.388;2024-03-07T11:58:10;5.93;;;4.00;;
10260;SDS011;5175;42.606;23.388;2024-03-07T12:00:40;4.70;;;4.20;;
10260;SDS011;5175;42.606;23.388;2024-03-07T12:03:10;4.73;;;4.33;;
10260;SDS011;5175;42.606;23.388;2024-03-07T12:05:38;4.73;;;4.23;;
10260;SDS011;5175;42.606;23.388;2024-03-07T12:08:08;4.27;;;2.87;;
10260;SDS011;5175;42.606;23.388;2024-03-07T12:10:36;3.93;;;2.70;;
10260;SDS011;5175;42.606;23.388;2024-03-07T12:13:05;4.23;;;2.97;;
10260;SDS011;5175;42.606;23.388;2024-03-07T12:15:32;17.70;;;4.20;;
10260;SDS011;5175;42.606;23.388;2024-03-07T12:18:02;3.20;;;2.90;;
10260;SDS011;5175;42.606;23.388;2024-03-07T12:20:34;3.60;;;2.80;;
10260;SDS011;5175;42.606;23.388;2024-03-07T12:23:02;3.00;;;2.43;;
10260;SDS011;5175;42.606;23.388;2024-03-07T12:25:33;2.90;;;2.60;;
10260;SDS011;5175;42.606;23.388;2024-03-07T12:28:00;3.00;;;2.70;;
10260;SDS011;5175;42.606;23.388;2024-03-07T12:30:31;3.23;;;2.83;;
10260;SDS011;5175;42.606;23.388;2024-03-07T12:33:00;3.30;;;3.00;;
10260;SDS011;5175;42.606;23.388;2024-03-07T12:35:32;3.20;;;2.90;;
10260;SDS011;5175;42.606;23.388;2024-03-07T12:37:59;3.37;;;2.93;;
10260;SDS011;5175;42.606;23.388;2024-03-07T12:40:28;3.00;;;2.80;;
10260;SDS011;5175;42.606;23.388;2024-03-07T12:42:59;3.40;;;2.97;;
10260;SDS011;5175;42.606;23.388;2024-03-07T12:45:27;3.43;;;3.00;;
10260;SDS011;5175;42.606;23.388;2024-03-07T12:47:56;3.23;;;2.93;;
10260;SDS011;5175;42.606;23.388;2024-03-07T12:50:30;4.33;;;3.30;;
10260;SDS011;5175;42.606;23.388;2024-03-07T12:53:01;5.10;;;4.60;;
10260;SDS011;5175;42.606;23.388;2024-03-07T12:55:30;5.53;;;4.00;;
10260;SDS011;5175;42.606;23.388;2024-03-07T12:57:57;4.10;;;3.70;;
10260;SDS011;5175;42.606;23.388;2024-03-07T13:00:24;4.27;;;3.87;;
10260;SDS011;5175;42.606;23.388;2024-03-07T13:02:51;3.63;;;3.33;;
10260;SDS011;5175;42.606;23.388;2024-03-07T13:05:17;3.67;;;3.30;;
10260;SDS011;5175;42.606;23.388;2024-03-07T13:07:48;3.60;;;3.30;;
10260;SDS011;5175;42.606;23.388;2024-03-07T13:10:15;3.40;;;3.10;;
10260;SDS011;5175;42.606;23.388;2024-03-07T13:12:43;3.50;;;3.20;;
10260;SDS011;5175;42.606;23.388;2024-03-07T13:15:11;3.30;;;3.00;;
10260;SDS011;5175;42.606;23.388;2024-03-07T13:17:38;3.10;;;2.80;;
10260;SDS011;5175;42.606;23.388;2024-03-07T13:20:05;3.37;;;3.07;;
10260;SDS011;5175;42.606;23.388;2024-03-07T13:22:38;3.83;;;3.43;;
10260;SDS011;5175;42.606;23.388;2024-03-07T13:25:09;4.47;;;4.07;;
10260;SDS011;5175;42.606;23.388;2024-03-07T13:27:42;4.97;;;3.57;;
10260;SDS011;5175;42.606;23.388;2024-03-07T13:30:17;3.93;;;3.27;;
10260;SDS011;5175;42.606;23.388;2024-03-07T13:32:49;3.33;;;3.03;;
10260;SDS011;5175;42.606;23.388;2024-03-07T13:35:18;3.20;;;2.90;;
10260;SDS011;5175;42.606;23.388;2024-03-07T13:37:46;2.90;;;2.70;;
10260;SDS011;5175;42.606;23.388;2024-03-07T13:40:15;3.63;;;3.23;;
10260;SDS011;5175;42.606;23.388;2024-03-07T13:42:50;3.30;;;3.00;;
10260;SDS011;5175;42.606;23.388;2024-03-07T13:45:22;3.20;;;2.90;;
10260;SDS011;5175;42.606;23.388;2024-03-07T13:47:51;2.97;;;2.77;;
10260;SDS011;5175;42.606;23.388;2024-03-07T13:50:19;3.20;;;2.77;;
10260;SDS011;5175;42.606;23.388;2024-03-07T13:52:47;3.10;;;2.80;;
10260;SDS011;5175;42.606;23.388;2024-03-07T13:55:41;3.30;;;3.00;;
10260;SDS011;5175;42.606;23.388;2024-03-07T13:58:20;3.47;;;2.90;;
10260;SDS011;5175;42.606;23.388;2024-03-07T14:01:02;3.13;;;2.83;;
10260;SDS011;5175;42.606;23.388;2024-03-07T14:03:59;3.30;;;3.00;;
10260;SDS011;5175;42.606;23.388;2024-03-07T14:06:56;6.00;;;3.20;;
10260;SDS011;5175;42.606;23.388;2024-03-07T14:13:02;3.67;;;2.90;;
10260;SDS011;5175;42.606;23.388;2024-03-07T14:15:56;3.33;;;3.03;;
10260;SDS011;5175;42.606;23.388;2024-03-07T14:22:03;4.20;;;3.60;;
10260;SDS011;5175;42.606;23.388;2024-03-07T14:25:00;5.73;;;4.30;;
10260;SDS011;5175;42.606;23.388;2024-03-07T14:27:50;5.83;;;4.77;;
10260;SDS011;5175;42.606;23.388;2024-03-07T14:30:38;5.60;;;5.10;;
10260;SDS011;5175;42.606;23.388;2024-03-07T14:33:08;8.13;;;5.33;;
10260;SDS011;5175;42.606;23.388;2024-03-07T14:35:39;5.60;;;5.00;;
10260;SDS011;5175;42.606;23.388;2024-03-07T14:38:26;5.73;;;5.13;;
10260;SDS011;5175;42.606;23.388;2024-03-07T14:40:55;5.93;;;5.27;;
10260;SDS011;5175;42.606;23.388;2024-03-07T14:43:22;6.20;;;4.63;;
10260;SDS011;5175;42.606;23.388;2024-03-07T14:45:52;8.27;;;5.20;;
10260;SDS011;5175;42.606;23.388;2024-03-07T14:48:20;6.87;;;5.53;;
10260;SDS011;5175;42.606;23.388;2024-03-07T14:50:47;8.47;;;6.20;;
10260;SDS011;5175;42.606;23.388;2024-03-07T14:53:13;6.97;;;6.07;;
10260;SDS011;5175;42.606;23.388;2024-03-07T14:55:43;6.50;;;5.80;;
10260;SDS011;5175;42.606;23.388;2024-03-07T14:58:10;7.83;;;6.73;;
10260;SDS011;5175;42.606;23.388;2024-03-07T15:00:39;7.70;;;6.90;;